Time;durP1;ratioP1;P1;durP2;ratioP2;P2;SDS_P1;SDS_P2;PMS_P1;PMS_P2;Temp;Humidity;BMP_temperature;BMP_pressure;BME280_temperature;BME280_humidity;BME280_pressure;Samples;Min_cycle;Max_cycle;Signal;HPM_P1;HPM_P2
2020/12/29 00:00:57;;;;;;;24.90;19.93;;;5.20;70.40;;;;;;6218911;23;20023;-85
2020/12/29 00:03:23;;;;;;;28.20;21.77;;;5.20;70.60;;;;;;6219434;23;20001;-85
2020/12/29 00:05:50;;;;;;;23.87;19.70;;;5.20;70.70;;;;;;6192563;23;20090;-85
2020/12/29 00:08:16;;;;;;;23.23;18.83;;;5.20;70.90;;;;;;6192095;23;20454;-85
2020/12/29 00:10:42;;;;;;;20.23;15.63;;;5.20;70.90;;;;;;6190846;23;20011;-85
2020/12/29 00:13:09;;;;;;;19.97;16.17;;;5.20;71.30;;;;;;6218676;23;20012;-85
2020/12/29 00:15:41;;;;;;;17.33;13.97;;;5.40;71.40;;;;;;6216502;23;20027;-85
2020/12/29 00:18:07;;;;;;;19.73;15.98;;;5.40;70.80;;;;;;6192152;23;20004;-85
2020/12/29 00:20:33;;;;;;;16.53;13.27;;;5.40;70.60;;;;;;6218057;23;19996;-85
2020/12/29 00:22:59;;;;;;;16.33;13.20;;;5.40;70.40;;;;;;6218074;23;20450;-85
2020/12/29 00:25:25;;;;;;;17.20;12.97;;;5.40;70.40;;;;;;6192391;23;20743;-85
2020/12/29 00:27:51;;;;;;;18.40;14.50;;;5.40;70.30;;;;;;6219341;23;20120;-85
2020/12/29 00:30:16;;;;;;;19.40;13.97;;;5.40;70.30;;;;;;6189094;23;20044;-85
2020/12/29 00:32:42;;;;;;;19.07;15.80;;;5.30;70.40;;;;;;6190139;23;20036;-86
2020/12/29 00:35:08;;;;;;;22.40;17.53;;;5.40;70.50;;;;;;6190424;23;20013;-85
2020/12/29 00:37:34;;;;;;;22.87;16.77;;;5.40;70.40;;;;;;6191951;23;20000;-85
2020/12/29 00:39:59;;;;;;;19.70;16.33;;;5.40;70.40;;;;;;6190999;23;20428;-86
2020/12/29 00:42:25;;;;;;;21.87;16.83;;;5.40;70.40;;;;;;6191007;23;20331;-85
2020/12/29 00:44:51;;;;;;;21.53;15.90;;;5.40;70.30;;;;;;6190711;23;20047;-86
2020/12/29 00:47:19;;;;;;;21.70;17.03;;;5.30;70.40;;;;;;6191932;23;20054;-86
2020/12/29 00:49:45;;;;;;;22.77;17.23;;;5.30;70.50;;;;;;6191131;23;20007;-85
2020/12/29 00:52:11;;;;;;;23.20;17.50;;;5.30;70.50;;;;;;6192251;23;20008;-86
2020/12/29 00:54:36;;;;;;;23.33;18.00;;;5.30;70.40;;;;;;6192011;23;20004;-85
2020/12/29 00:57:02;;;;;;;24.57;17.80;;;5.30;70.40;;;;;;6192609;23;20005;-85
2020/12/29 00:59:28;;;;;;;24.30;17.37;;;5.20;71.00;;;;;;6219173;23;20000;-85
2020/12/29 01:01:55;;;;;;;18.93;14.83;;;5.10;70.70;;;;;;6192202;23;20000;-86
2020/12/29 01:04:21;;;;;;;18.03;12.57;;;5.20;70.90;;;;;;6191340;23;20064;-86
2020/12/29 01:06:47;;;;;;;16.27;11.80;;;5.20;70.60;;;;;;6191963;23;20009;-86
2020/12/29 01:09:13;;;;;;;16.40;11.40;;;5.20;70.60;;;;;;6218900;23;20084;-86
2020/12/29 01:11:39;;;;;;;15.17;12.10;;;5.20;70.50;;;;;;6219442;23;20325;-86
2020/12/29 01:14:05;;;;;;;15.80;11.33;;;5.20;70.50;;;;;;6190145;23;20096;-86
2020/12/29 01:16:30;;;;;;;14.43;9.53;;;5.20;70.60;;;;;;6190320;23;20000;-86
2020/12/29 01:18:56;;;;;;;12.90;10.00;;;5.20;70.50;;;;;;6217142;23;20324;-86
2020/12/29 01:21:22;;;;;;;14.27;10.83;;;5.20;70.50;;;;;;6191702;23;20424;-86
2020/12/29 01:23:47;;;;;;;12.27;10.43;;;5.20;70.60;;;;;;6191667;23;20387;-85
2020/12/29 01:26:29;;;;;;;13.37;10.50;;;5.20;70.50;;;;;;6190893;23;20064;-86
2020/12/29 01:28:55;;;;;;;12.40;9.67;;;5.20;70.50;;;;;;6190747;23;20340;-85
2020/12/29 01:31:28;;;;;;;11.57;8.20;;;5.20;70.50;;;;;;6191251;23;20012;-86
2020/12/29 01:33:54;;;;;;;9.27;7.23;;;5.10;70.40;;;;;;6189775;23;20406;-85
2020/12/29 01:36:21;;;;;;;7.80;5.77;;;5.10;70.60;;;;;;6191301;23;20032;-85
2020/12/29 01:38:46;;;;;;;7.57;6.20;;;5.20;70.50;;;;;;6191350;23;20011;-85
2020/12/29 01:41:12;;;;;;;9.73;7.20;;;5.10;70.30;;;;;;6216939;23;20028;-86
2020/12/29 01:43:38;;;;;;;9.97;7.57;;;5.10;70.30;;;;;;6190457;23;20030;-86
2020/12/29 01:46:03;;;;;;;10.60;7.20;;;5.10;70.40;;;;;;6189074;23;20107;-86
2020/12/29 01:48:29;;;;;;;11.43;7.40;;;5.10;70.60;;;;;;6188917;23;20020;-85
2020/12/29 01:50:56;;;;;;;12.30;8.90;;;5.10;70.60;;;;;;6190561;23;20009;-85
2020/12/29 01:53:22;;;;;;;10.67;8.37;;;5.10;70.50;;;;;;6190435;23;20008;-86
2020/12/29 01:55:48;;;;;;;11.73;8.30;;;5.10;70.80;;;;;;6191771;23;20011;-85
2020/12/29 01:58:14;;;;;;;5.63;3.73;;;5.10;70.60;;;;;;6191317;23;19997;-85
2020/12/29 02:00:40;;;;;;;4.00;2.60;;;5.10;70.60;;;;;;6189960;23;20412;-85
2020/12/29 02:03:10;;;;;;;4.47;3.50;;;5.30;71.00;;;;;;6189392;23;20011;-85
2020/12/29 02:05:37;;;;;;;5.57;3.80;;;5.40;69.80;;;;;;6216930;23;20075;-85
2020/12/29 02:08:03;;;;;;;6.23;3.57;;;5.20;69.60;;;;;;6189995;23;20087;-85
2020/12/29 02:10:29;;;;;;;6.40;4.30;;;5.20;70.00;;;;;;6189288;23;20008;-85
2020/12/29 02:12:56;;;;;;;4.07;2.93;;;5.10;69.70;;;;;;6188275;23;20013;-85
2020/12/29 02:15:22;;;;;;;5.40;3.67;;;4.90;70.00;;;;;;6189483;23;20012;-85
2020/12/29 02:17:47;;;;;;;4.10;2.80;;;5.00;70.50;;;;;;6189880;23;20008;-85
2020/12/29 02:20:13;;;;;;;2.97;2.33;;;5.00;70.10;;;;;;6190197;23;20008;-85
2020/12/29 02:22:39;;;;;;;3.47;2.57;;;4.90;70.00;;;;;;6192581;23;20011;-85
2020/12/29 02:25:07;;;;;;;5.00;3.47;;;4.80;69.70;;;;;;6193749;23;20008;-85
2020/12/29 02:27:42;;;;;;;6.00;3.10;;;4.70;69.80;;;;;;6193831;23;20086;-86
2020/12/29 02:30:08;;;;;;;4.37;3.60;;;4.80;70.10;;;;;;6193517;23;20031;-85
2020/12/29 02:32:34;;;;;;;4.17;2.90;;;4.90;69.90;;;;;;6192677;23;20367;-85
2020/12/29 02:34:59;;;;;;;11.63;8.67;;;4.90;69.70;;;;;;6193299;23;20007;-85
2020/12/29 02:37:25;;;;;;;10.67;8.00;;;4.80;69.50;;;;;;6219589;23;20079;-85
2020/12/29 02:39:52;;;;;;;17.23;12.07;;;4.80;69.80;;;;;;6194405;23;20080;-85
2020/12/29 02:42:18;;;;;;;13.70;10.87;;;4.80;69.80;;;;;;6192915;23;20371;-85
2020/12/29 02:44:44;;;;;;;13.43;10.33;;;4.80;70.00;;;;;;6194077;23;20000;-85
2020/12/29 02:47:10;;;;;;;14.63;11.97;;;4.70;70.30;;;;;;6193194;23;20001;-85
2020/12/29 02:49:36;;;;;;;19.23;14.27;;;4.80;70.40;;;;;;6192664;23;20000;-85
2020/12/29 02:52:03;;;;;;;13.03;9.60;;;4.80;70.50;;;;;;6192536;23;20397;-85
2020/12/29 02:54:29;;;;;;;17.03;12.73;;;4.70;70.50;;;;;;6192592;23;20024;-85
2020/12/29 02:56:55;;;;;;;13.33;9.70;;;4.70;70.90;;;;;;6220003;23;20001;-85
2020/12/29 02:59:24;;;;;;;14.23;10.50;;;4.50;70.60;;;;;;6219704;23;20032;-85
2020/12/29 03:01:51;;;;;;;10.63;8.07;;;4.60;71.10;;;;;;6217464;23;20084;-85
2020/12/29 03:04:17;;;;;;;9.60;7.50;;;4.60;71.00;;;;;;6192537;23;20031;-85
2020/12/29 03:06:43;;;;;;;7.87;6.10;;;4.50;70.80;;;;;;6193643;23;20068;-85
2020/12/29 03:09:09;;;;;;;7.23;5.20;;;4.50;71.10;;;;;;6193575;23;20751;-85
2020/12/29 03:11:35;;;;;;;6.13;4.30;;;4.50;70.90;;;;;;6220235;23;20056;-85
2020/12/29 03:14:03;;;;;;;4.83;2.87;;;4.50;71.10;;;;;;6191194;23;20005;-85
2020/12/29 03:16:29;;;;;;;3.47;2.60;;;4.50;70.40;;;;;;6191231;23;20016;-85
2020/12/29 03:18:55;;;;;;;5.47;3.10;;;4.40;70.20;;;;;;6192661;23;20004;-85
2020/12/29 03:21:22;;;;;;;5.47;3.87;;;4.50;70.70;;;;;;6191631;23;20494;-85
2020/12/29 03:23:48;;;;;;;5.20;2.70;;;4.50;70.30;;;;;;6218905;23;20004;-85
2020/12/29 03:26:15;;;;;;;4.00;2.93;;;4.40;70.70;;;;;;6192599;23;20416;-85
2020/12/29 03:28:41;;;;;;;4.93;3.20;;;4.30;69.70;;;;;;6191763;23;20462;-85
2020/12/29 03:31:07;;;;;;;2.37;1.43;;;4.40;70.60;;;;;;6191258;23;20032;-85
2020/12/29 03:33:33;;;;;;;3.70;2.60;;;4.30;69.60;;;;;;6192866;23;20332;-85
2020/12/29 03:35:59;;;;;;;2.90;2.00;;;4.30;69.50;;;;;;6219745;23;20020;-85
2020/12/29 03:38:25;;;;;;;4.70;1.70;;;4.20;69.20;;;;;;6193064;23;20486;-85
2020/12/29 03:40:51;;;;;;;3.77;2.90;;;4.00;69.20;;;;;;6192213;23;20001;-85
2020/12/29 03:43:18;;;;;;;2.70;1.77;;;4.10;69.90;;;;;;6192912;23;20413;-85
2020/12/29 03:45:45;;;;;;;3.97;2.07;;;4.30;69.80;;;;;;6190698;23;20453;-85
2020/12/29 03:48:12;;;;;;;8.07;5.83;;;4.20;69.00;;;;;;6192209;23;20083;-85
2020/12/29 03:50:38;;;;;;;9.27;6.87;;;4.20;70.10;;;;;;6192470;23;20028;-85
2020/12/29 03:53:04;;;;;;;9.07;7.10;;;4.10;69.40;;;;;;6194890;23;20473;-85
2020/12/29 03:55:31;;;;;;;6.40;4.63;;;4.10;69.80;;;;;;6193827;23;20030;-85
2020/12/29 03:57:56;;;;;;;7.47;5.30;;;4.10;69.90;;;;;;6194104;23;20005;-85
2020/12/29 04:00:22;;;;;;;6.17;4.90;;;3.90;69.50;;;;;;6191249;23;20020;-85
2020/12/29 04:02:48;;;;;;;5.13;4.10;;;3.80;69.80;;;;;;6193836;23;20008;-85
2020/12/29 04:05:14;;;;;;;8.20;5.87;;;3.80;70.20;;;;;;6194408;23;20305;-85
2020/12/29 04:07:40;;;;;;;5.70;4.40;;;3.90;70.60;;;;;;6193729;23;20005;-85
2020/12/29 04:10:06;;;;;;;9.07;6.70;;;4.10;70.20;;;;;;6194368;23;20031;-85
2020/12/29 04:12:31;;;;;;;9.13;6.87;;;4.00;69.50;;;;;;6192136;23;20087;-85
2020/12/29 04:14:57;;;;;;;6.03;4.50;;;4.00;69.70;;;;;;6217912;23;20020;-85
2020/12/29 04:17:23;;;;;;;10.57;5.27;;;4.00;70.10;;;;;;6190791;23;20440;-85
2020/12/29 04:19:49;;;;;;;5.40;4.40;;;4.10;70.30;;;;;;6191271;23;20055;-85
2020/12/29 04:22:15;;;;;;;4.23;3.03;;;4.10;70.00;;;;;;6190412;23;20013;-85
2020/12/29 04:24:41;;;;;;;3.60;2.57;;;4.10;69.80;;;;;;6191325;23;20008;-85
2020/12/29 04:27:06;;;;;;;10.00;5.93;;;4.10;69.40;;;;;;6191031;23;20087;-85
2020/12/29 04:29:32;;;;;;;3.50;2.43;;;3.90;69.40;;;;;;6191589;23;20012;-85
2020/12/29 04:31:58;;;;;;;7.20;4.30;;;3.90;69.50;;;;;;6193875;23;20008;-85
2020/12/29 04:34:23;;;;;;;6.73;4.20;;;4.00;69.70;;;;;;6193235;23;20036;-85
2020/12/29 04:36:53;;;;;;;5.83;3.27;;;3.90;68.60;;;;;;6194240;23;20001;-85
2020/12/29 04:39:19;;;;;;;5.17;3.13;;;3.80;69.10;;;;;;6192974;23;20042;-85
2020/12/29 04:41:50;;;;;;;3.33;2.40;;;3.90;69.40;;;;;;6220462;23;20589;-85
2020/12/29 04:44:16;;;;;;;8.13;3.33;;;3.80;69.20;;;;;;6193479;23;20008;-85
2020/12/29 04:46:42;;;;;;;3.87;2.60;;;3.80;68.90;;;;;;6219754;23;20443;-85
2020/12/29 04:49:08;;;;;;;5.40;2.90;;;3.70;69.30;;;;;;6193762;23;20432;-85
2020/12/29 04:51:35;;;;;;;3.83;2.47;;;3.70;69.30;;;;;;6193222;23;20022;-85
2020/12/29 04:54:06;;;;;;;3.63;2.30;;;3.60;69.00;;;;;;6192498;23;20150;-85
2020/12/29 04:56:33;;;;;;;4.07;2.57;;;3.60;69.00;;;;;;6193570;23;20560;-85
2020/12/29 04:59:00;;;;;;;4.87;1.80;;;3.60;68.80;;;;;;6192894;23;20009;-85
2020/12/29 05:01:31;;;;;;;4.27;2.53;;;3.60;68.90;;;;;;6193568;23;20000;-85
2020/12/29 05:03:57;;;;;;;3.73;2.40;;;3.50;68.40;;;;;;6189949;23;20336;-85
2020/12/29 05:06:24;;;;;;;4.23;2.70;;;3.30;68.50;;;;;;6193333;23;20004;-85
2020/12/29 05:08:52;;;;;;;2.60;2.23;;;3.30;69.20;;;;;;6193743;23;20004;-85
2020/12/29 05:11:19;;;;;;;2.73;1.20;;;3.30;69.40;;;;;;6193847;23;20032;-85
2020/12/29 05:13:46;;;;;;;2.40;1.43;;;3.50;69.70;;;;;;6191316;23;20009;-85
2020/12/29 05:16:12;;;;;;;4.90;2.40;;;3.40;68.80;;;;;;6192606;23;20000;-85
2020/12/29 05:18:38;;;;;;;7.30;5.33;;;3.40;68.80;;;;;;6219185;23;20034;-85
2020/12/29 05:21:04;;;;;;;3.60;2.83;;;3.40;69.20;;;;;;6219653;23;20019;-85
2020/12/29 05:23:30;;;;;;;2.80;2.10;;;3.40;69.30;;;;;;6193691;23;20031;-85
2020/12/29 05:25:56;;;;;;;5.87;2.97;;;3.50;68.70;;;;;;6192637;23;20019;-85
2020/12/29 05:28:27;;;;;;;6.30;3.20;;;3.60;69.00;;;;;;6192134;23;20024;-85
2020/12/29 05:30:59;;;;;;;3.13;1.57;;;3.60;68.20;;;;;;6193307;23;20377;-85
2020/12/29 05:33:28;;;;;;;2.63;1.60;;;3.40;67.90;;;;;;6193460;23;20091;-85
2020/12/29 05:35:55;;;;;;;2.73;1.67;;;3.20;68.10;;;;;;6192914;23;20005;-85
2020/12/29 05:38:21;;;;;;;4.27;1.83;;;3.10;68.70;;;;;;6192665;23;20347;-85
2020/12/29 05:40:49;;;;;;;2.70;1.60;;;3.30;69.00;;;;;;6192748;23;20014;-85
2020/12/29 05:43:15;;;;;;;2.77;1.73;;;3.40;68.50;;;;;;6192539;23;20004;-85
2020/12/29 05:45:41;;;;;;;3.53;2.27;;;3.30;68.20;;;;;;6191962;23;20008;-85
2020/12/29 05:48:07;;;;;;;5.87;2.23;;;3.20;68.20;;;;;;6193197;23;20523;-85
2020/12/29 05:50:33;;;;;;;4.23;2.67;;;3.10;68.50;;;;;;6192236;23;20055;-85
2020/12/29 05:53:04;;;;;;;4.27;2.30;;;3.00;68.30;;;;;;6192904;23;20009;-85
2020/12/29 05:55:32;;;;;;;5.23;2.30;;;2.90;68.70;;;;;;6192492;23;20000;-85
2020/12/29 05:58:08;;;;;;;6.67;4.60;;;2.80;68.60;;;;;;6193959;23;20058;-85
2020/12/29 06:00:36;;;;;;;9.33;5.77;;;2.90;68.90;;;;;;6192779;23;20005;-85
2020/12/29 06:03:04;;;;;;;8.10;4.23;;;2.90;68.90;;;;;;6220030;23;20003;-85
2020/12/29 06:05:31;;;;;;;7.50;4.37;;;3.10;69.40;;;;;;6192881;23;20083;-85
2020/12/29 06:08:00;;;;;;;10.43;5.83;;;3.20;68.90;;;;;;6219954;23;20455;-85
2020/12/29 06:10:27;;;;;;;6.70;4.10;;;3.10;68.20;;;;;;6193063;23;20063;-85
2020/12/29 06:12:58;;;;;;;8.10;3.83;;;3.10;68.70;;;;;;6190225;23;20004;-85
2020/12/29 06:15:27;;;;;;;8.93;6.10;;;3.20;68.90;;;;;;6187540;23;20068;-85
2020/12/29 06:17:55;;;;;;;9.43;5.73;;;3.20;68.30;;;;;;6188905;23;20320;-85
2020/12/29 06:20:21;;;;;;;8.17;4.80;;;3.10;68.70;;;;;;6190373;23;20004;-85
2020/12/29 06:22:50;;;;;;;29.60;7.17;;;3.20;68.50;;;;;;6189230;23;20015;-85
2020/12/29 06:25:18;;;;;;;9.03;6.17;;;3.10;68.60;;;;;;6193703;23;20020;-86
2020/12/29 06:27:55;;;;;;;9.40;5.67;;;3.20;69.20;;;;;;6193812;23;20001;-85
2020/12/29 06:30:21;;;;;;;7.63;4.83;;;3.20;68.40;;;;;;6163765;23;20096;-85
2020/12/29 06:32:49;;;;;;;7.83;5.27;;;3.20;68.40;;;;;;6161846;23;20012;-85
2020/12/29 06:35:18;;;;;;;10.33;5.10;;;3.20;68.10;;;;;;6188635;23;20005;-85
2020/12/29 06:37:51;;;;;;;14.93;7.20;;;3.20;68.20;;;;;;6164913;23;20001;-85
2020/12/29 06:40:19;;;;;;;29.47;11.80;;;3.10;67.90;;;;;;6163875;23;20009;-85
2020/12/29 06:42:46;;;;;;;18.40;7.23;;;3.00;68.00;;;;;;6163707;23;20005;-85
2020/12/29 06:45:12;;;;;;;11.50;5.37;;;3.00;67.70;;;;;;6162819;23;20104;-85
2020/12/29 06:47:45;;;;;;;7.03;4.57;;;2.90;67.90;;;;;;6163797;23;20005;-85
2020/12/29 06:50:31;;;;;;;10.43;5.77;;;3.00;68.00;;;;;;6162314;23;20017;-85
2020/12/29 06:53:02;;;;;;;13.13;7.27;;;3.00;68.00;;;;;;6161762;23;20006;-85
2020/12/29 06:55:49;;;;;;;12.13;7.63;;;3.10;67.90;;;;;;6163331;23;20050;-85
2020/12/29 06:58:33;;;;;;;14.27;9.03;;;3.10;67.80;;;;;;6161040;23;20029;-85
2020/12/29 07:01:19;;;;;;;18.60;9.93;;;3.00;67.50;;;;;;6187890;23;19997;-85
2020/12/29 07:03:45;;;;;;;9.27;4.73;;;3.00;67.60;;;;;;6160493;23;20009;-85
2020/12/29 07:06:12;;;;;;;7.33;3.87;;;3.00;67.50;;;;;;6162120;23;20015;-85
2020/12/29 07:08:38;;;;;;;7.13;4.00;;;2.90;67.20;;;;;;6188479;23;20005;-85
2020/12/29 07:11:22;;;;;;;7.73;4.30;;;2.90;67.10;;;;;;6161586;23;20001;-85
2020/12/29 07:13:51;;;;;;;10.80;5.70;;;2.80;67.50;;;;;;6188905;23;20040;-85
2020/12/29 07:16:25;;;;;;;17.27;7.63;;;2.70;67.80;;;;;;6162376;23;20001;-85
2020/12/29 07:18:51;;;;;;;21.67;10.70;;;2.80;67.90;;;;;;6161295;23;20328;-85
2020/12/29 07:21:29;;;;;;;21.67;11.13;;;2.80;67.80;;;;;;6162473;23;20001;-85
2020/12/29 07:23:55;;;;;;;22.33;10.80;;;2.80;67.60;;;;;;6162514;23;20055;-85
2020/12/29 07:26:23;;;;;;;15.10;8.40;;;2.80;67.70;;;;;;6163406;23;20017;-85
2020/12/29 07:28:56;;;;;;;18.53;9.53;;;2.70;67.50;;;;;;6177442;23;20020;-85
2020/12/29 07:31:22;;;;;;;15.73;8.97;;;2.70;67.50;;;;;;6193890;23;20005;-85
2020/12/29 07:33:54;;;;;;;26.27;13.37;;;2.70;67.70;;;;;;6192835;23;20005;-85
2020/12/29 07:36:21;;;;;;;20.93;11.70;;;2.70;67.90;;;;;;6216781;23;20431;-85
2020/12/29 07:38:50;;;;;;;18.37;10.73;;;2.70;67.80;;;;;;6219905;23;20000;-85
2020/12/29 07:41:17;;;;;;;21.93;10.93;;;2.70;67.70;;;;;;6220637;23;20012;-85
2020/12/29 07:43:46;;;;;;;24.37;12.30;;;2.70;67.70;;;;;;6193501;23;20446;-85
2020/12/29 07:46:12;;;;;;;18.40;11.07;;;2.70;67.90;;;;;;6217977;23;20004;-85
2020/12/29 07:48:38;;;;;;;22.87;11.33;;;2.80;67.70;;;;;;6191809;23;20020;-86
2020/12/29 07:51:04;;;;;;;20.13;11.80;;;2.70;67.40;;;;;;6192628;23;20012;-85
2020/12/29 07:53:31;;;;;;;20.27;10.53;;;2.70;67.30;;;;;;6193549;23;20004;-85
2020/12/29 07:55:57;;;;;;;17.27;9.07;;;2.70;67.60;;;;;;6194448;23;20412;-85
2020/12/29 07:58:24;;;;;;;21.23;10.80;;;2.70;67.70;;;;;;6221655;23;20599;-85
2020/12/29 08:00:50;;;;;;;16.50;9.40;;;2.80;67.80;;;;;;6193830;23;20031;-85
2020/12/29 08:03:18;;;;;;;14.77;8.00;;;2.80;67.80;;;;;;6193537;23;20008;-85
2020/12/29 08:05:44;;;;;;;18.37;10.00;;;2.80;67.50;;;;;;6192727;23;20005;-85
2020/12/29 08:08:11;;;;;;;22.07;10.73;;;2.70;67.90;;;;;;6195195;23;20083;-85
2020/12/29 08:10:39;;;;;;;22.80;13.63;;;2.70;67.80;;;;;;6192022;23;20013;-85
2020/12/29 08:13:09;;;;;;;19.30;10.63;;;2.70;67.90;;;;;;6181975;23;20009;-85
2020/12/29 08:15:40;;;;;;;19.80;9.10;;;2.70;68.00;;;;;;6183491;23;20752;-85
2020/12/29 08:18:18;;;;;;;31.37;13.47;;;2.70;67.80;;;;;;6193538;23;20057;-85
2020/12/29 08:20:48;;;;;;;12.03;6.50;;;2.70;67.80;;;;;;6193608;23;20027;-85
2020/12/29 08:23:19;;;;;;;12.37;7.83;;;2.80;68.20;;;;;;6192646;23;20009;-85
2020/12/29 08:25:59;;;;;;;17.03;8.90;;;2.70;67.70;;;;;;6194096;23;20009;-85
2020/12/29 08:28:30;;;;;;;26.57;14.67;;;2.70;67.90;;;;;;6194250;23;20095;-85
2020/12/29 08:31:05;;;;;;;21.23;12.83;;;2.70;67.80;;;;;;6194556;23;20011;-85
2020/12/29 08:33:32;;;;;;;13.63;8.10;;;2.70;67.90;;;;;;6195626;23;20056;-85
2020/12/29 08:36:03;;;;;;;19.43;9.87;;;2.70;67.80;;;;;;6194821;23;20091;-86
2020/12/29 08:38:40;;;;;;;16.73;8.90;;;2.70;67.70;;;;;;6221385;23;20000;-86
2020/12/29 08:41:12;;;;;;;13.93;8.00;;;2.50;67.70;;;;;;6194019;23;20009;-86
2020/12/29 08:43:43;;;;;;;20.83;10.27;;;2.40;67.90;;;;;;6192837;23;20336;-86
2020/12/29 08:46:10;;;;;;;22.23;11.87;;;2.30;68.20;;;;;;6220611;23;20305;-86
2020/12/29 08:48:37;;;;;;;9.20;5.13;;;2.20;68.50;;;;;;6191894;23;20009;-86
2020/12/29 08:51:19;;;;;;;13.70;5.97;;;2.30;69.20;;;;;;6220964;23;20023;-86
2020/12/29 08:53:45;;;;;;;21.50;10.40;;;2.40;69.10;;;;;;6193404;23;20008;-86
2020/12/29 08:56:21;;;;;;;34.37;16.70;;;2.50;69.00;;;;;;6220645;23;20008;-86
2020/12/29 08:58:48;;;;;;;24.80;14.13;;;2.60;68.90;;;;;;6193529;23;20047;-86
2020/12/29 09:01:32;;;;;;;24.50;14.80;;;2.60;68.90;;;;;;6193734;23;20000;-86
2020/12/29 09:04:21;;;;;;;30.83;16.70;;;2.70;69.10;;;;;;6195002;23;20486;-86
2020/12/29 09:06:59;;;;;;;19.23;10.50;;;2.80;69.10;;;;;;6221222;23;20340;-86
2020/12/29 09:09:25;;;;;;;14.27;7.63;;;2.80;68.90;;;;;;6194320;23;20009;-86
2020/12/29 09:12:12;;;;;;;18.90;9.97;;;2.80;69.30;;;;;;6195673;23;20064;-86
2020/12/29 09:14:48;;;;;;;22.00;11.73;;;3.00;69.50;;;;;;6194952;23;20095;-85
2020/12/29 09:17:15;;;;;;;23.70;12.77;;;3.20;69.20;;;;;;6192290;23;20362;-84
2020/12/29 09:19:41;;;;;;;25.17;12.33;;;3.20;68.90;;;;;;6193533;23;20004;-84
2020/12/29 09:22:11;;;;;;;24.87;14.27;;;3.30;68.90;;;;;;6220768;23;19996;-84
2020/12/29 09:24:50;;;;;;;21.87;12.80;;;3.40;68.80;;;;;;6195241;23;20012;-85
2020/12/29 09:27:30;;;;;;;15.10;10.53;;;3.60;68.90;;;;;;6194836;23;20036;-85
2020/12/29 09:29:57;;;;;;;20.87;12.77;;;3.60;68.70;;;;;;6220753;23;20032;-85
2020/12/29 09:32:24;;;;;;;17.50;10.67;;;3.70;68.50;;;;;;6194289;23;20551;-85
2020/12/29 09:34:53;;;;;;;16.93;10.50;;;3.70;68.20;;;;;;6194011;23;20091;-85
2020/12/29 09:37:19;;;;;;;18.23;10.70;;;3.80;68.50;;;;;;6195365;23;20020;-85
2020/12/29 09:39:46;;;;;;;17.53;10.43;;;4.00;68.20;;;;;;6221683;23;20606;-85
2020/12/29 09:42:11;;;;;;;20.77;12.50;;;4.10;68.10;;;;;;6193295;23;20020;-85
2020/12/29 09:44:37;;;;;;;22.40;13.53;;;4.20;68.00;;;;;;6192737;23;20313;-85
2020/12/29 09:47:03;;;;;;;18.43;10.73;;;4.40;67.90;;;;;;6193942;23;20008;-85
2020/12/29 09:49:29;;;;;;;15.93;10.13;;;4.50;67.70;;;;;;6193130;23;20036;-85
2020/12/29 09:51:55;;;;;;;21.83;11.33;;;4.50;67.50;;;;;;6194750;23;20001;-85
2020/12/29 09:54:23;;;;;;;22.30;11.40;;;4.60;67.30;;;;;;6195890;23;20009;-85
2020/12/29 09:56:49;;;;;;;16.90;9.20;;;4.60;67.20;;;;;;6196256;23;20455;-85
2020/12/29 09:59:15;;;;;;;15.63;9.67;;;4.60;67.00;;;;;;6194055;23;20000;-85
2020/12/29 10:01:40;;;;;;;11.37;7.47;;;4.80;66.90;;;;;;6221536;23;20584;-85
2020/12/29 10:04:06;;;;;;;9.67;6.93;;;4.90;66.40;;;;;;6194581;23;20008;-85
2020/12/29 10:06:32;;;;;;;10.17;5.93;;;5.00;65.70;;;;;;6195271;23;20008;-85
2020/12/29 10:08:57;;;;;;;12.03;7.93;;;5.20;65.50;;;;;;6194571;23;20004;-85
2020/12/29 10:11:26;;;;;;;10.80;7.17;;;5.40;65.40;;;;;;6193711;23;20028;-85
2020/12/29 10:13:52;;;;;;;9.77;7.20;;;5.60;65.10;;;;;;6187258;23;20009;-85
2020/12/29 10:16:18;;;;;;;12.10;7.70;;;5.70;64.40;;;;;;6188379;23;20084;-85
2020/12/29 10:18:43;;;;;;;10.27;6.73;;;5.90;63.70;;;;;;6192546;23;20005;-85
2020/12/29 10:21:10;;;;;;;10.67;6.67;;;6.10;63.50;;;;;;6193227;23;20016;-85
2020/12/29 10:23:36;;;;;;;10.47;6.73;;;6.30;63.10;;;;;;6193087;23;20082;-85
2020/12/29 10:26:02;;;;;;;8.43;5.37;;;6.60;62.70;;;;;;6194040;23;20008;-85
2020/12/29 10:28:30;;;;;;;14.73;6.90;;;6.70;61.80;;;;;;6194092;23;20344;-85
2020/12/29 10:30:56;;;;;;;9.13;5.73;;;6.80;61.30;;;;;;6194464;23;20015;-85
2020/12/29 10:33:22;;;;;;;12.10;6.00;;;6.90;61.10;;;;;;6194528;23;20012;-85
2020/12/29 10:35:48;;;;;;;8.50;6.60;;;7.10;60.90;;;;;;6219912;23;20014;-85
2020/12/29 10:38:13;;;;;;;13.53;7.00;;;7.30;60.40;;;;;;6193024;23;20325;-85
2020/12/29 10:40:39;;;;;;;9.63;5.53;;;7.40;59.70;;;;;;6219548;23;19997;-85
2020/12/29 10:43:05;;;;;;;11.30;6.73;;;7.30;59.70;;;;;;6220672;23;20007;-85
2020/12/29 10:45:30;;;;;;;11.83;6.73;;;7.40;60.00;;;;;;6219502;23;20005;-85
2020/12/29 10:47:56;;;;;;;11.27;8.60;;;7.60;60.00;;;;;;6192340;23;20008;-85
2020/12/29 10:50:22;;;;;;;14.80;11.07;;;7.70;59.70;;;;;;6192545;23;20004;-85
2020/12/29 10:52:47;;;;;;;11.03;7.40;;;7.90;59.60;;;;;;6192790;23;20444;-85
2020/12/29 10:55:13;;;;;;;11.33;7.53;;;8.00;59.30;;;;;;6219730;23;20003;-85
2020/12/29 10:57:38;;;;;;;12.60;6.40;;;8.00;59.30;;;;;;6194867;23;20004;-85
2020/12/29 11:00:04;;;;;;;11.93;7.90;;;8.10;59.30;;;;;;6194855;23;20384;-85
2020/12/29 11:02:30;;;;;;;11.50;6.70;;;8.10;59.30;;;;;;6196440;23;20005;-85
2020/12/29 11:04:56;;;;;;;14.73;8.00;;;8.10;59.00;;;;;;6194784;23;20000;-85
2020/12/29 11:07:21;;;;;;;11.07;7.20;;;8.20;58.90;;;;;;6195198;23;20007;-85
2020/12/29 11:09:48;;;;;;;16.13;10.10;;;8.20;58.60;;;;;;6192419;23;20409;-85
2020/12/29 11:12:13;;;;;;;12.77;7.50;;;8.30;58.40;;;;;;6195228;23;20309;-85
2020/12/29 11:14:39;;;;;;;13.20;7.30;;;8.30;58.50;;;;;;6191332;23;20028;-85
2020/12/29 11:17:05;;;;;;;11.93;7.07;;;8.40;58.20;;;;;;6195080;23;20011;-85
2020/12/29 11:19:31;;;;;;;11.93;6.07;;;8.50;57.90;;;;;;6194076;23;20487;-85
2020/12/29 11:21:56;;;;;;;12.23;6.50;;;8.40;57.80;;;;;;6194902;23;20091;-86
2020/12/29 11:24:24;;;;;;;8.80;5.17;;;8.50;58.10;;;;;;6193611;23;20013;-86
2020/12/29 11:26:50;;;;;;;5.73;4.40;;;8.50;57.70;;;;;;6194449;23;20449;-85
2020/12/29 11:29:16;;;;;;;7.87;4.53;;;8.50;57.30;;;;;;6194393;23;20099;-85
2020/12/29 11:31:41;;;;;;;6.03;4.60;;;8.40;57.30;;;;;;6195008;23;20031;-86
2020/12/29 11:34:07;;;;;;;8.20;4.63;;;8.40;57.30;;;;;;6222070;23;20000;-85
2020/12/29 11:36:33;;;;;;;6.27;4.83;;;8.50;57.40;;;;;;6219031;23;20442;-85
2020/12/29 11:38:59;;;;;;;6.33;4.37;;;8.60;57.20;;;;;;6194707;23;20012;-85
2020/12/29 11:41:24;;;;;;;6.83;4.23;;;8.60;57.00;;;;;;6194756;23;20055;-86
2020/12/29 11:43:51;;;;;;;6.17;4.60;;;8.60;57.00;;;;;;6222034;23;20008;-85
2020/12/29 11:46:17;;;;;;;6.67;4.63;;;8.60;56.80;;;;;;6193864;23;20004;-85
2020/12/29 11:48:43;;;;;;;7.53;4.87;;;8.50;56.70;;;;;;6192747;23;20491;-86
2020/12/29 11:51:10;;;;;;;6.83;4.37;;;8.40;57.00;;;;;;6194450;23;20044;-86
2020/12/29 11:53:36;;;;;;;8.03;5.40;;;8.30;57.10;;;;;;6192706;23;20014;-85
2020/12/29 11:56:02;;;;;;;11.70;7.40;;;8.30;57.50;;;;;;6193389;23;20069;-85
2020/12/29 11:58:28;;;;;;;11.77;7.17;;;8.30;57.70;;;;;;6221547;23;20353;-85
2020/12/29 12:00:54;;;;;;;9.40;7.23;;;8.30;57.50;;;;;;6195927;23;20359;-85
2020/12/29 12:03:20;;;;;;;9.93;6.47;;;8.30;57.50;;;;;;6194979;23;20036;-86
2020/12/29 12:05:45;;;;;;;11.17;7.07;;;8.30;57.30;;;;;;6194954;23;20004;-85
2020/12/29 12:08:11;;;;;;;9.60;7.13;;;8.30;57.10;;;;;;6196426;23;20014;-86
2020/12/29 12:10:37;;;;;;;9.60;6.90;;;8.20;57.30;;;;;;6221251;23;20500;-85
2020/12/29 12:13:03;;;;;;;10.77;7.87;;;8.10;57.30;;;;;;6221505;23;20005;-85
2020/12/29 12:15:28;;;;;;;12.90;7.20;;;8.10;57.60;;;;;;6196366;23;20005;-85
2020/12/29 12:17:54;;;;;;;15.93;8.13;;;8.10;57.50;;;;;;6195865;23;20001;-85
2020/12/29 12:20:20;;;;;;;10.70;7.90;;;8.00;57.50;;;;;;6195721;23;20367;-86
2020/12/29 12:22:45;;;;;;;15.47;8.53;;;8.00;57.70;;;;;;6221161;23;20428;-86
2020/12/29 12:25:11;;;;;;;11.67;7.37;;;8.00;57.70;;;;;;6220318;23;20031;-86
2020/12/29 12:27:37;;;;;;;9.70;6.13;;;8.00;58.10;;;;;;6195098;23;20031;-86
2020/12/29 12:30:04;;;;;;;10.13;6.43;;;7.90;57.40;;;;;;6195172;23;20099;-86
2020/12/29 12:32:29;;;;;;;12.10;6.93;;;8.00;57.70;;;;;;6195847;23;20072;-85
2020/12/29 12:34:55;;;;;;;10.23;7.03;;;8.10;57.60;;;;;;6197547;23;20508;-85
2020/12/29 12:37:21;;;;;;;11.47;6.43;;;8.10;57.40;;;;;;6193435;23;20005;-85
2020/12/29 12:39:46;;;;;;;9.90;6.10;;;8.10;57.40;;;;;;6193128;23;20016;-85
2020/12/29 12:42:12;;;;;;;8.47;5.73;;;8.00;57.40;;;;;;6195018;23;20028;-85
2020/12/29 12:44:40;;;;;;;9.50;6.57;;;7.90;57.50;;;;;;6192798;23;20039;-85
2020/12/29 12:47:06;;;;;;;12.20;6.33;;;7.90;57.50;;;;;;6196309;23;20008;-85
2020/12/29 12:49:32;;;;;;;10.67;6.20;;;7.90;57.80;;;;;;6194780;23;20009;-85